Time;durP1;ratioP1;P1;durP2;ratioP2;P2;SDS_P1;SDS_P2;PMS_P1;PMS_P2;Temp;Humidity;BMP_temperature;BMP_pressure;BME280_temperature;BME280_humidity;BME280_pressure;Samples;Min_cycle;Max_cycle;Signal;HPM_P1;HPM_P2
2021/12/06 00:00:20;;;;;;;54.42;43.42;;;;;;;2.93;100.00;101131.19;1031515;28;21132;-74
2021/12/06 00:00:58;;;;;;;58.88;42.97;;;;;;;2.92;100.00;101123.44;1032708;28;20464;-75
2021/12/06 00:01:36;;;;;;;57.00;42.67;;;;;;;2.93;100.00;101125.09;1033248;28;20430;-74
2021/12/06 00:02:13;;;;;;;57.95;43.33;;;;;;;2.92;100.00;101126.06;1031990;28;20527;-74
2021/12/06 00:02:45;;;;;;;55.35;43.15;;;;;;;2.91;100.00;101124.44;1035246;28;20439;-75
2021/12/06 00:03:22;;;;;;;51.35;44.08;;;;;;;2.89;100.00;101126.41;1038308;28;20479;-74
2021/12/06 00:04:00;;;;;;;62.42;46.50;;;;;;;2.89;100.00;101134.28;1036648;28;20799;-74
2021/12/06 00:04:36;;;;;;;66.05;41.83;;;;;;;2.90;100.00;101128.03;1037192;28;20462;-75
2021/12/06 00:05:08;;;;;;;60.83;44.38;;;;;;;2.88;100.00;101127.38;1038324;28;20525;-75
2021/12/06 00:05:40;;;;;;;54.92;43.45;;;;;;;2.88;100.00;101127.38;1036267;28;20487;-75
2021/12/06 00:06:12;;;;;;;63.70;45.50;;;;;;;2.92;100.00;101133.97;1034243;28;20453;-74
2021/12/06 00:06:47;;;;;;;58.92;45.67;;;;;;;2.91;100.00;101134.94;1030953;28;20473;-78
2021/12/06 00:07:21;;;;;;;53.13;44.90;;;;;;;2.89;100.00;101134.28;1033712;28;20481;-74
2021/12/06 00:07:53;;;;;;;60.90;45.30;;;;;;;2.87;100.00;101137.09;1034977;28;20444;-75
2021/12/06 00:08:24;;;;;;;56.08;44.67;;;;;;;2.87;100.00;101138.88;1035967;28;20472;-75
2021/12/06 00:08:56;;;;;;;56.22;44.85;;;;;;;2.86;100.00;101135.44;1040759;28;20435;-75
2021/12/06 00:09:29;;;;;;;61.70;45.65;;;;;;;2.88;100.00;101132.66;1038237;28;20472;-75
2021/12/06 00:10:01;;;;;;;58.50;47.17;;;;;;;2.93;100.00;101140.88;1038503;28;20483;-74
2021/12/06 00:10:33;;;;;;;64.50;47.95;;;;;;;2.88;100.00;101133.47;1032569;28;20542;-75
2021/12/06 00:11:08;;;;;;;64.88;47.55;;;;;;;2.88;100.00;101136.09;1030354;28;20453;-75
2021/12/06 00:11:40;;;;;;;70.28;47.85;;;;;;;2.87;100.00;101138.88;1028568;28;20560;-75
2021/12/06 00:12:13;;;;;;;66.93;49.25;;;;;;;2.87;100.00;101141.53;1032126;28;20449;-75
2021/12/06 00:12:45;;;;;;;53.28;45.28;;;;;;;2.86;100.00;101134.59;1034591;28;20480;-74
2021/12/06 00:13:20;;;;;;;66.00;49.63;;;;;;;2.86;100.00;101145.13;1035948;28;20495;-78
2021/12/06 00:13:52;;;;;;;56.20;46.50;;;;;;;2.86;100.00;101145.13;1034543;28;20906;-74
2021/12/06 00:14:27;;;;;;;58.47;47.33;;;;;;;2.86;100.00;101140.69;1034469;28;20460;-74
2021/12/06 00:14:59;;;;;;;63.80;46.95;;;;;;;2.86;100.00;101145.13;1032910;28;20464;-75
2021/12/06 00:15:33;;;;;;;66.63;48.53;;;;;;;2.87;100.00;101152.03;1030679;28;20484;-74
2021/12/06 00:16:09;;;;;;;58.35;47.80;;;;;;;2.88;100.00;101153.69;1032937;28;21032;-80
2021/12/06 00:16:40;;;;;;;62.40;46.95;;;;;;;2.88;100.00;101144.00;1031690;28;20453;-80
2021/12/06 00:17:15;;;;;;;62.10;47.13;;;;;;;2.87;100.00;101141.53;1039122;28;20453;-80
2021/12/06 00:17:46;;;;;;;57.78;45.97;;;;;;;2.87;100.00;101149.41;1036560;28;20444;-81
2021/12/06 00:18:19;;;;;;;67.78;48.15;;;;;;;2.88;100.00;101148.44;1031025;28;20479;-80
2021/12/06 00:18:52;;;;;;;79.47;50.00;;;;;;;2.87;100.00;101141.53;1030993;28;20828;-75
2021/12/06 00:19:24;;;;;;;59.50;48.40;;;;;;;2.87;100.00;101146.78;1028703;28;20469;-75
2021/12/06 00:19:56;;;;;;;64.05;48.45;;;;;;;2.87;100.00;101152.03;1027282;28;20454;-74
2021/12/06 00:20:30;;;;;;;62.63;50.42;;;;;;;2.87;100.00;101142.34;1032465;28;20458;-79
2021/12/06 00:21:02;;;;;;;66.10;49.70;;;;;;;2.87;100.00;101142.34;1036098;28;20464;-76
2021/12/06 00:21:34;;;;;;;66.95;49.72;;;;;;;2.88;100.00;101153.69;1035097;28;20452;-74
2021/12/06 00:22:11;;;;;;;70.05;51.58;;;;;;;2.91;100.00;101148.94;1033338;28;20466;-75
2021/12/06 00:22:43;;;;;;;65.50;48.55;;;;;;;2.93;100.00;101151.41;1030808;28;20801;-75
2021/12/06 00:23:14;;;;;;;70.00;50.58;;;;;;;2.95;100.00;101141.53;1026883;28;20809;-74
2021/12/06 00:23:46;;;;;;;71.15;50.67;;;;;;;2.92;100.00;101147.13;1031718;28;20461;-75
2021/12/06 00:24:18;;;;;;;69.55;48.28;;;;;;;2.93;100.00;101151.41;1030410;28;21045;-74
2021/12/06 00:24:55;;;;;;;70.00;51.72;;;;;;;2.95;100.00;101154.69;1035490;28;20445;-74
2021/12/06 00:25:27;;;;;;;69.90;50.85;;;;;;;2.94;100.00;101153.03;1032645;28;20461;-75
2021/12/06 00:25:59;;;;;;;66.70;52.45;;;;;;;2.92;100.00;101150.56;1035487;28;20515;-75
2021/12/06 00:26:31;;;;;;;72.20;53.97;;;;;;;2.91;100.00;101156.00;1039226;28;20984;-75
2021/12/06 00:27:03;;;;;;;67.93;50.75;;;;;;;2.94;100.00;101163.56;1038291;28;20467;-75
2021/12/06 00:27:38;;;;;;;74.32;51.80;;;;;;;2.95;100.00;101160.78;1040134;28;20455;-80
2021/12/06 00:28:12;;;;;;;76.03;51.17;;;;;;;2.94;100.00;101151.25;1041153;28;20539;-80
2021/12/06 00:28:46;;;;;;;79.47;51.67;;;;;;;2.96;100.00;101151.06;1040958;28;20439;-81
2021/12/06 00:29:18;;;;;;;76.68;53.22;;;;;;;2.95;100.00;101160.78;1040404;28;20425;-81
2021/12/06 00:29:50;;;;;;;73.97;55.03;;;;;;;2.94;100.00;101150.41;1036778;28;20862;-81
2021/12/06 00:30:21;;;;;;;72.40;55.10;;;;;;;2.95;100.00;101150.25;1037394;28;20881;-80
2021/12/06 00:30:54;;;;;;;76.18;55.05;;;;;;;2.94;100.00;101163.56;1034936;28;20433;-81
2021/12/06 00:31:31;;;;;;;71.22;52.58;;;;;;;2.94;100.00;101160.94;1039059;28;20482;-80
2021/12/06 00:32:03;;;;;;;74.60;50.58;;;;;;;2.92;100.00;101149.75;1040576;28;20471;-81
2021/12/06 00:32:34;;;;;;;65.78;50.38;;;;;;;2.94;100.00;101163.56;1032979;28;20460;-81
2021/12/06 00:33:06;;;;;;;80.00;53.38;;;;;;;2.92;100.00;101162.91;1034097;28;20736;-81
2021/12/06 00:33:38;;;;;;;81.80;55.90;;;;;;;2.92;100.00;101162.91;1026965;28;21210;-80
2021/12/06 00:34:14;;;;;;;76.28;55.35;;;;;;;2.92;100.00;101160.28;1031539;28;20515;-80
2021/12/06 00:34:46;;;;;;;75.10;56.45;;;;;;;2.93;100.00;101172.44;1032902;28;20433;-81
2021/12/06 00:35:21;;;;;;;68.78;54.33;;;;;;;2.91;100.00;101159.44;1036403;28;20815;-80
2021/12/06 00:35:56;;;;;;;89.50;56.42;;;;;;;2.88;100.00;101169.47;1042105;28;21008;-81
2021/12/06 00:36:31;;;;;;;78.65;54.20;;;;;;;2.90;100.00;101162.25;1040354;28;20981;-80
2021/12/06 00:37:56;;;;;;;73.95;53.25;;;;;;;2.91;100.00;101175.25;1033192;28;20471;-80
2021/12/06 00:38:27;;;;;;;83.60;52.10;;;;;;;2.88;100.00;101172.09;1030663;28;20834;-80
2021/12/06 00:39:02;;;;;;;81.90;56.95;;;;;;;2.89;100.00;101160.59;1032988;28;20469;-80
2021/12/06 00:39:33;;;;;;;78.18;55.28;;;;;;;2.90;100.00;101178.03;1034793;28;20476;-80
2021/12/06 00:40:08;;;;;;;75.93;55.75;;;;;;;2.88;100.00;101170.28;1040704;28;20460;-80
2021/12/06 00:40:43;;;;;;;79.63;56.90;;;;;;;2.92;100.00;101176.06;1039160;28;21019;-80
2021/12/06 00:41:15;;;;;;;73.43;56.03;;;;;;;2.90;100.00;101178.03;1040350;28;20462;-79
2021/12/06 00:41:47;;;;;;;82.80;55.40;;;;;;;2.92;100.00;101176.06;1039862;28;20451;-74
2021/12/06 00:42:21;;;;;;;83.00;55.47;;;;;;;2.92;100.00;101178.69;1038476;28;20463;-74
2021/12/06 00:42:52;;;;;;;79.65;55.83;;;;;;;2.91;100.00;101182.31;1038479;28;20475;-75
2021/12/06 00:43:24;;;;;;;76.88;58.00;;;;;;;2.92;100.00;101181.31;1038190;28;20449;-80
2021/12/06 00:43:55;;;;;;;76.53;57.13;;;;;;;2.92;100.00;101190.03;1039603;28;20459;-80
2021/12/06 00:44:27;;;;;;;74.97;55.20;;;;;;;2.92;100.00;101187.41;1039229;28;20656;-80
2021/12/06 00:44:58;;;;;;;86.95;57.75;;;;;;;2.90;100.00;101188.56;1041277;28;20475;-81
2021/12/06 00:45:30;;;;;;;81.78;55.60;;;;;;;2.90;100.00;101184.13;1039106;28;20448;-81
2021/12/06 00:46:02;;;;;;;75.78;58.85;;;;;;;2.92;100.00;101186.59;1041396;28;20647;-80
2021/12/06 00:46:35;;;;;;;78.53;57.58;;;;;;;2.88;100.00;101188.72;1041114;28;20427;-81
2021/12/06 00:47:07;;;;;;;90.45;58.20;;;;;;;2.91;100.00;101184.94;1041721;28;20735;-74
2021/12/06 00:47:38;;;;;;;85.50;58.60;;;;;;;2.90;100.00;101194.63;1035722;28;20826;-74
2021/12/06 00:48:10;;;;;;;93.40;60.83;;;;;;;2.90;100.00;101188.56;1035770;28;20447;-75
2021/12/06 00:48:41;;;;;;;86.88;57.05;;;;;;;2.91;100.00;101195.47;1038100;28;20472;-74
2021/12/06 00:49:13;;;;;;;85.55;59.45;;;;;;;2.91;100.00;101196.28;1038832;28;20737;-75
2021/12/06 00:49:46;;;;;;;80.63;59.50;;;;;;;2.92;100.00;101197.09;1038946;28;20476;-73
2021/12/06 00:50:20;;;;;;;83.85;56.47;;;;;;;2.93;100.00;101198.75;1038742;28;20448;-74
2021/12/06 00:50:52;;;;;;;77.32;58.50;;;;;;;2.93;100.00;101199.59;1033345;28;20464;-74
2021/12/06 00:51:23;;;;;;;83.13;57.92;;;;;;;2.94;100.00;101195.97;1034797;28;20461;-74
2021/12/06 00:51:55;;;;;;;84.05;60.30;;;;;;;2.97;100.00;101202.72;1034503;28;20469;-75
2021/12/06 00:52:26;;;;;;;77.45;56.53;;;;;;;3.01;100.00;101196.16;1034630;28;20460;-74
2021/12/06 00:52:58;;;;;;;86.03;62.90;;;;;;;3.00;100.00;101199.78;1039010;28;20444;-74
2021/12/06 00:53:30;;;;;;;76.95;58.33;;;;;;;2.99;100.00;101198.13;1038274;28;20476;-74
2021/12/06 00:54:02;;;;;;;89.38;59.25;;;;;;;2.98;100.00;101201.75;1034420;28;20539;-74
2021/12/06 00:54:35;;;;;;;78.85;60.75;;;;;;;2.98;100.00;101204.38;1034743;28;20874;-75
2021/12/06 00:55:07;;;;;;;87.75;59.17;;;;;;;2.98;100.00;101196.47;1035216;28;20469;-74
2021/12/06 00:55:39;;;;;;;90.82;59.05;;;;;;;3.00;100.00;101205.03;1038711;28;20459;-74
2021/12/06 00:56:11;;;;;;;78.85;59.40;;;;;;;3.00;100.00;101199.78;1035421;28;20468;-74
2021/12/06 00:56:42;;;;;;;88.30;60.85;;;;;;;2.99;100.00;101211.28;1038625;28;20443;-74
2021/12/06 00:57:14;;;;;;;82.18;58.70;;;;;;;2.97;100.00;101202.72;1040857;28;20755;-81
2021/12/06 00:57:46;;;;;;;87.40;55.47;;;;;;;2.98;100.00;101207.00;1041329;28;20436;-81
2021/12/06 00:58:18;;;;;;;86.68;59.53;;;;;;;2.98;100.00;101204.38;1038938;28;21276;-81
2021/12/06 00:58:50;;;;;;;81.95;57.75;;;;;;;2.97;100.00;101202.72;1039667;28;20466;-81
2021/12/06 00:59:21;;;;;;;78.22;58.70;;;;;;;2.99;100.00;101203.38;1039429;28;20455;-81
2021/12/06 00:59:53;;;;;;;84.47;60.35;;;;;;;2.99;100.00;101195.50;1035517;28;20477;-80
2021/12/06 01:00:28;;;;;;;77.85;58.83;;;;;;;3.04;100.00;101209.84;1036616;28;20542;-81
2021/12/06 01:01:01;;;;;;;83.95;55.40;;;;;;;3.00;100.00;101207.66;1033732;28;20468;-80
2021/12/06 01:01:33;;;;;;;80.43;58.20;;;;;;;2.99;100.00;101200.75;1036359;28;20479;-81
2021/12/06 01:02:06;;;;;;;84.55;59.90;;;;;;;3.01;100.00;101201.41;1040697;28;20837;-80
2021/12/06 01:02:38;;;;;;;90.95;59.10;;;;;;;3.02;100.00;101203.09;1040865;28;20456;-80
2021/12/06 01:03:14;;;;;;;83.85;59.85;;;;;;;3.00;100.00;101205.03;1041821;28;20459;-80
2021/12/06 01:03:46;;;;;;;87.00;57.25;;;;;;;3.01;100.00;101196.16;1039109;28;21016;-80
2021/12/06 01:04:17;;;;;;;91.90;61.53;;;;;;;3.01;100.00;101194.38;1043676;28;20801;-80
2021/12/06 01:04:49;;;;;;;94.03;60.90;;;;;;;3.01;100.00;101206.69;1038834;28;20858;-81
2021/12/06 01:05:23;;;;;;;89.43;60.20;;;;;;;3.00;100.00;101194.50;1035196;28;20448;-81
2021/12/06 01:05:55;;;;;;;90.63;61.35;;;;;;;2.99;100.00;101203.38;1030496;28;20543;-81
2021/12/06 01:06:27;;;;;;;84.63;59.85;;;;;;;2.99;100.00;101192.84;1026171;28;20459;-81
2021/12/06 01:06:58;;;;;;;93.53;62.08;;;;;;;2.98;100.00;101199.09;1032266;28;20492;-80
2021/12/06 01:07:30;;;;;;;95.28;62.63;;;;;;;2.99;100.00;101198.94;1032412;28;20544;-74
2021/12/06 01:08:02;;;;;;;87.95;60.83;;;;;;;2.98;100.00;101191.22;1030886;28;20485;-75
2021/12/06 01:08:33;;;;;;;94.65;60.08;;;;;;;2.95;100.00;101195.00;1030542;28;20453;-74
2021/12/06 01:09:05;;;;;;;82.35;60.47;;;;;;;2.96;100.00;101198.44;1026663;28;20564;-74
2021/12/06 01:09:37;;;;;;;85.65;62.92;;;;;;;2.96;100.00;101207.16;1031449;28;20488;-74
2021/12/06 01:10:10;;;;;;;87.30;60.80;;;;;;;2.95;100.00;101202.06;1026626;28;20462;-80
2021/12/06 01:10:41;;;;;;;84.13;58.53;;;;;;;2.93;100.00;101204.03;1029957;28;21013;-81
2021/12/06 01:11:13;;;;;;;93.95;61.05;;;;;;;2.94;100.00;101205.66;1031081;28;20445;-81
2021/12/06 01:11:44;;;;;;;89.35;60.53;;;;;;;2.95;100.00;101204.69;1034659;28;20802;-80
2021/12/06 01:12:16;;;;;;;90.25;60.63;;;;;;;2.92;100.00;101203.19;1039341;28;20825;-81
2021/12/06 01:12:48;;;;;;;88.10;61.42;;;;;;;2.94;100.00;101203.88;1039784;28;20455;-81
2021/12/06 01:13:21;;;;;;;89.35;59.75;;;;;;;2.93;100.00;101201.38;1039583;28;20594;-80
2021/12/06 01:13:52;;;;;;;88.05;58.35;;;;;;;2.93;100.00;101207.47;1037212;28;20456;-80
2021/12/06 01:14:23;;;;;;;90.60;61.85;;;;;;;2.94;100.00;101211.75;1035008;28;20460;-81
2021/12/06 01:14:55;;;;;;;91.03;60.90;;;;;;;2.93;100.00;101204.03;1036885;28;21229;-80
2021/12/06 01:15:27;;;;;;;85.97;61.72;;;;;;;2.90;100.00;101204.34;1039052;28;20826;-81
2021/12/06 01:15:59;;;;;;;91.80;61.60;;;;;;;2.91;100.00;101211.25;1042198;28;20482;-80
2021/12/06 01:16:31;;;;;;;96.28;62.75;;;;;;;2.90;100.00;101209.59;1042182;28;20451;-81
2021/12/06 01:17:03;;;;;;;92.05;62.17;;;;;;;2.91;100.00;101219.97;1040868;28;20474;-81
2021/12/06 01:17:35;;;;;;;87.97;60.53;;;;;;;2.91;100.00;101213.88;1038852;28;20455;-81
2021/12/06 01:18:09;;;;;;;89.35;65.07;;;;;;;2.87;100.00;101216.00;1039100;28;20825;-81
2021/12/06 01:18:40;;;;;;;83.93;59.03;;;;;;;2.84;100.00;101218.94;1038172;28;20467;-81
2021/12/06 01:19:12;;;;;;;82.05;61.35;;;;;;;2.84;100.00;101220.75;1039010;28;20466;-80
2021/12/06 01:19:43;;;;;;;91.82;61.83;;;;;;;2.83;100.00;101219.09;1040582;28;20471;-79
2021/12/06 01:20:20;;;;;;;91.18;62.03;;;;;;;2.83;100.00;101230.47;1041104;28;20456;-80
2021/12/06 01:21:00;;;;;;;94.03;61.33;;;;;;;2.83;100.00;101219.94;1038552;28;20459;-81
2021/12/06 01:21:55;;;;;;;90.65;61.72;;;;;;;2.86;100.00;101226.69;1038533;28;20787;-81
2021/12/06 01:22:33;;;;;;;86.80;54.70;;;;;;;2.85;100.00;101217.16;1038897;28;20045;-80
2021/12/06 01:23:06;;;;;;;85.22;58.67;;;;;;;2.82;100.00;101217.47;1041652;28;20836;-80
2021/12/06 01:23:49;;;;;;;92.85;60.83;;;;;;;2.83;100.00;101225.19;1035033;28;20480;-80
2021/12/06 01:24:27;;;;;;;86.63;55.83;;;;;;;2.83;100.00;101219.09;1036577;28;20459;-81
2021/12/06 01:25:04;;;;;;;84.15;58.20;;;;;;;2.82;100.00;101228.81;1032589;28;20936;-81
2021/12/06 01:27:07;;;;;;;80.10;49.17;;;;;;;2.86;100.00;101230.13;1033605;28;20484;-80
2021/12/06 01:28:02;;;;;;;80.85;46.90;;;;;;;2.85;100.00;101227.66;1033171;28;21037;-74
2021/12/06 01:30:06;;;;;;;73.57;43.58;;;;;;;2.86;100.00;101229.31;1033366;28;20459;-74
2021/12/06 01:30:59;;;;;;;82.60;42.95;;;;;;;2.87;100.00;101230.97;1039023;28;20772;-74
2021/12/06 01:33:38;;;;;;;78.40;43.85;;;;;;;2.87;100.00;101228.34;1029312;28;20476;-74
2021/12/06 01:39:11;;;;;;;74.13;40.25;;;;;;;2.88;100.00;101230.81;1039064;28;20932;-80
2021/12/06 01:39:42;;;;;;;83.80;42.92;;;;;;;2.85;100.00;101231.13;1039118;28;20838;-81
2021/12/06 01:40:19;;;;;;;78.53;44.47;;;;;;;2.86;100.00;101229.31;1041151;28;20475;-81
2021/12/06 01:40:50;;;;;;;86.97;45.97;;;;;;;2.85;100.00;101233.75;1039558;28;20834;-80
2021/12/06 01:41:22;;;;;;;75.82;47.35;;;;;;;2.85;100.00;101223.22;1041296;28;20459;-81
2021/12/06 01:41:57;;;;;;;71.13;45.17;;;;;;;2.87;100.00;101225.69;1040749;28;20425;-80
2021/12/06 01:42:29;;;;;;;83.97;48.80;;;;;;;2.85;100.00;101222.41;1039453;28;20444;-80
2021/12/06 01:43:04;;;;;;;82.88;47.10;;;;;;;2.85;100.00;101222.41;1039271;28;20463;-80
2021/12/06 01:43:36;;;;;;;83.40;46.88;;;;;;;2.85;100.00;101222.41;1041070;28;20482;-80
2021/12/06 01:44:15;;;;;;;82.13;46.90;;;;;;;2.82;100.00;101222.72;1041297;28;20924;-80
2021/12/06 01:44:55;;;;;;;86.78;51.20;;;;;;;2.82;100.00;101228.81;1034201;28;21032;-80
2021/12/06 01:45:27;;;;;;;74.10;43.92;;;;;;;2.81;100.00;101221.06;1037658;28;20445;-80
2021/12/06 01:45:58;;;;;;;78.90;45.95;;;;;;;2.80;100.00;101225.50;1039518;28;20057;-80
2021/12/06 01:46:31;;;;;;;83.72;48.60;;;;;;;2.84;100.00;101226.03;1039766;28;20475;-75
2021/12/06 01:47:08;;;;;;;83.93;47.22;;;;;;;2.82;100.00;101226.19;1035072;28;20484;-76
2021/12/06 01:47:40;;;;;;;78.53;44.90;;;;;;;2.82;100.00;101223.53;1032165;28;20559;-74
2021/12/06 01:48:12;;;;;;;83.20;49.47;;;;;;;2.78;100.00;101223.03;1031296;28;20449;-80
2021/12/06 01:48:45;;;;;;;79.43;45.65;;;;;;;2.77;100.00;101231.91;1030393;28;20460;-74
2021/12/06 01:49:19;;;;;;;87.00;47.97;;;;;;;2.74;100.00;101219.06;1038224;28;20828;-80
2021/12/06 01:49:56;;;;;;;91.00;49.25;;;;;;;2.72;100.00;101223.63;1035941;28;20491;-81
2021/12/06 01:50:30;;;;;;;78.72;47.10;;;;;;;2.71;100.00;101229.06;1036690;28;20498;-81
2021/12/06 01:51:02;;;;;;;75.72;46.30;;;;;;;2.67;100.00;101227.72;1037038;28;20486;-80
2021/12/06 01:51:34;;;;;;;78.25;45.58;;;;;;;2.65;100.00;101232.31;1037079;28;20456;-75
2021/12/06 01:52:21;;;;;;;76.13;47.17;;;;;;;2.62;100.00;101236.06;1039916;28;20551;-80
2021/12/06 01:52:55;;;;;;;78.05;45.95;;;;;;;2.61;100.00;101231.78;1038881;28;20460;-81
2021/12/06 01:53:26;;;;;;;72.28;45.25;;;;;;;2.60;100.00;101239.84;1040119;28;20455;-81
2021/12/06 01:53:58;;;;;;;69.55;44.50;;;;;;;2.58;100.00;101237.38;1036124;28;20857;-81
2021/12/06 01:54:30;;;;;;;75.47;46.90;;;;;;;2.58;100.00;101241.81;1031043;28;20991;-80
2021/12/06 01:55:04;;;;;;;85.15;46.17;;;;;;;2.55;100.00;101245.56;1032043;28;20481;-81
2021/12/06 01:55:38;;;;;;;65.15;42.35;;;;;;;2.54;100.00;101243.09;1031946;28;20815;-81
2021/12/06 01:56:10;;;;;;;73.82;45.17;;;;;;;2.52;100.00;101245.06;1036862;28;20511;-81
2021/12/06 01:56:43;;;;;;;71.15;44.22;;;;;;;2.50;100.00;101239.94;1042626;28;20483;-81
2021/12/06 01:57:15;;;;;;;69.88;45.10;;;;;;;2.49;100.00;101240.94;1034085;28;20443;-81
2021/12/06 01:57:47;;;;;;;77.03;46.40;;;;;;;2.47;100.00;101245.53;1041855;28;20470;-80
2021/12/06 01:58:19;;;;;;;73.43;43.65;;;;;;;2.47;100.00;101240.25;1035522;28;20440;-81
2021/12/06 01:58:50;;;;;;;64.07;43.38;;;;;;;2.46;100.00;101243.84;1032514;28;20808;-80
2021/12/06 01:59:22;;;;;;;72.45;43.20;;;;;;;2.40;100.00;101245.28;1036117;28;20476;-80
2021/12/06 01:59:55;;;;;;;61.05;40.72;;;;;;;2.39;100.00;101248.06;1034829;28;20812;-80
2021/12/06 02:00:47;;;;;;;66.57;42.58;;;;;;;2.37;100.00;101247.41;1038097;28;20480;-80
2021/12/06 02:01:19;;;;;;;60.78;37.08;;;;;;;2.33;100.00;101244.25;1037851;28;20897;-81
2021/12/06 02:01:51;;;;;;;55.17;37.97;;;;;;;2.35;100.00;101241.47;1041422;28;20467;-80
2021/12/06 02:02:24;;;;;;;57.97;38.88;;;;;;;2.33;100.00;101246.06;1041781;28;20446;-74
2021/12/06 02:02:57;;;;;;;64.47;40.20;;;;;;;2.33;100.00;101248.69;1034040;28;20472;-75
2021/12/06 02:03:29;;;;;;;60.97;39.92;;;;;;;2.34;100.00;101252.97;1034293;28;20481;-74
2021/12/06 02:04:02;;;;;;;59.75;40.25;;;;;;;2.33;100.00;101243.44;1034762;28;20487;-74
2021/12/06 02:04:35;;;;;;;59.83;40.95;;;;;;;2.32;100.00;101249.66;1034523;28;21093;-75
2021/12/06 02:05:07;;;;;;;67.50;43.03;;;;;;;2.32;100.00;101249.66;1038423;28;20459;-75
2021/12/06 02:05:40;;;;;;;68.80;43.35;;;;;;;2.31;100.00;101250.66;1039764;28;20482;-75
2021/12/06 02:06:11;;;;;;;71.65;41.53;;;;;;;2.31;100.00;101250.66;1034712;28;20468;-74
2021/12/06 02:06:44;;;;;;;69.65;43.30;;;;;;;2.33;100.00;101248.69;1034502;28;21033;-76
2021/12/06 02:07:19;;;;;;;71.35;44.17;;;;;;;2.30;100.00;101249.81;1034441;28;20448;-75
2021/12/06 02:07:51;;;;;;;64.60;41.83;;;;;;;2.30;100.00;101249.00;1034847;28;20448;-74
2021/12/06 02:08:24;;;;;;;66.50;41.95;;;;;;;2.30;100.00;101254.25;1034316;28;21010;-75
2021/12/06 02:08:56;;;;;;;67.57;41.45;;;;;;;2.30;100.00;101249.00;1030926;28;20460;-75
2021/12/06 02:09:28;;;;;;;65.72;40.83;;;;;;;2.30;100.00;101251.63;1035457;28;20465;-75
2021/12/06 02:10:00;;;;;;;59.45;41.75;;;;;;;2.29;100.00;101245.53;1034596;28;20460;-74
2021/12/06 02:10:32;;;;;;;66.35;43.60;;;;;;;2.28;100.00;101251.78;1034845;28;20467;-74
2021/12/06 02:11:04;;;;;;;67.60;41.85;;;;;;;2.28;100.00;101248.31;1030731;28;21037;-75
2021/12/06 02:11:38;;;;;;;67.45;42.92;;;;;;;2.28;100.00;101251.78;1030497;28;20469;-74
2021/12/06 02:12:11;;;;;;;67.53;42.00;;;;;;;2.28;100.00;101246.53;1031433;28;20975;-75
2021/12/06 02:12:45;;;;;;;65.88;43.00;;;;;;;2.31;100.00;101248.00;1032136;28;20865;-74
2021/12/06 02:13:17;;;;;;;57.95;38.55;;;;;;;2.28;100.00;101243.06;1035308;28;20866;-80
2021/12/06 02:14:01;;;;;;;59.70;37.33;;;;;;;2.34;100.00;101247.72;1037651;28;20831;-81
2021/12/06 02:15:00;;;;;;;63.95;39.50;;;;;;;2.32;100.00;101247.03;1033470;28;20496;-81
2021/12/06 02:15:42;;;;;;;59.10;36.28;;;;;;;2.31;100.00;101250.66;1036726;28;20472;-81
2021/12/06 02:16:18;;;;;;;56.20;35.40;;;;;;;2.33;100.00;101249.50;1040706;28;20545;-80
2021/12/06 02:17:10;;;;;;;68.68;40.90;;;;;;;2.30;100.00;101247.19;1039733;28;20861;-80
2021/12/06 02:17:52;;;;;;;66.68;40.80;;;;;;;2.39;100.00;101248.06;1037682;28;21171;-75
2021/12/06 02:19:03;;;;;;;60.05;36.70;;;;;;;2.37;100.00;101255.28;1039225;28;20487;-75
2021/12/06 02:19:29;;;;;;;61.08;35.53;;;;;;;2.32;100.00;101244.41;1037570;28;20471;-74
2021/12/06 02:20:13;;;;;;;61.30;34.83;;;;;;;2.30;100.00;101256.88;1039043;28;20440;-75
2021/12/06 02:21:00;;;;;;;53.20;34.50;;;;;;;2.29;100.00;101248.16;1038601;28;20829;-75
2021/12/06 02:21:39;;;;;;;66.47;39.90;;;;;;;2.31;100.00;101250.66;1039330;28;20475;-75
2021/12/06 02:22:13;;;;;;;69.32;41.05;;;;;;;2.32;100.00;101252.28;1039626;28;20455;-74
2021/12/06 02:22:46;;;;;;;64.57;40.90;;;;;;;2.30;100.00;101249.00;1039438;28;21981;-75
2021/12/06 02:23:18;;;;;;;70.40;40.30;;;;;;;2.38;100.00;101246.41;1038613;28;20468;-74
2021/12/06 02:23:50;;;;;;;68.82;42.97;;;;;;;2.39;100.00;101253.31;1039371;28;20467;-75
2021/12/06 02:24:21;;;;;;;71.38;43.65;;;;;;;2.44;100.00;101251.88;1039791;28;20812;-75
2021/12/06 02:24:55;;;;;;;72.75;43.28;;;;;;;2.50;100.00;101249.66;1038892;28;20474;-75
2021/12/06 02:25:26;;;;;;;68.45;43.35;;;;;;;2.52;100.00;101248.50;1037351;28;20506;-75
2021/12/06 02:25:58;;;;;;;75.90;44.60;;;;;;;2.54;100.00;101257.06;1039256;28;20471;-75
2021/12/06 02:26:29;;;;;;;72.82;45.63;;;;;;;2.58;100.00;101247.88;1038977;28;20476;-75
2021/12/06 02:27:01;;;;;;;76.78;44.58;;;;;;;2.61;100.00;101252.84;1037731;28;20444;-75
2021/12/06 02:27:32;;;;;;;75.63;45.58;;;;;;;2.61;100.00;101258.09;1033895;28;20460;-75
2021/12/06 02:28:04;;;;;;;79.68;44.97;;;;;;;2.64;100.00;101257.78;1034962;28;20839;-75
2021/12/06 02:28:35;;;;;;;75.57;44.45;;;;;;;2.60;100.00;101259.06;1031517;28;20488;-75
2021/12/06 02:29:08;;;;;;;73.80;44.08;;;;;;;2.64;100.00;101252.53;1035431;28;20476;-75
2021/12/06 02:29:40;;;;;;;74.28;47.85;;;;;;;2.63;100.00;101253.50;1034617;28;20452;-75
2021/12/06 02:30:13;;;;;;;72.63;46.20;;;;;;;2.57;100.00;101256.75;1036339;28;20460;-74
2021/12/06 02:30:45;;;;;;;75.25;47.75;;;;;;;2.55;100.00;101253.47;1036323;28;20433;-80
2021/12/06 02:31:20;;;;;;;80.97;47.05;;;;;;;2.61;100.00;101258.09;1036603;28;20464;-81
2021/12/06 02:31:52;;;;;;;74.72;45.42;;;;;;;2.59;100.00;101249.53;1042217;28;21154;-81
2021/12/06 02:32:24;;;;;;;66.32;42.95;;;;;;;2.58;100.00;101263.66;1040055;28;20444;-80
2021/12/06 02:32:56;;;;;;;72.97;47.45;;;;;;;2.60;100.00;101253.00;1044425;28;20643;-80
2021/12/06 02:33:27;;;;;;;78.43;46.03;;;;;;;2.54;100.00;101251.81;1039633;28;20485;-80
2021/12/06 02:34:00;;;;;;;71.97;46.08;;;;;;;2.54;100.00;101256.25;1041510;28;21008;-81
2021/12/06 02:34:32;;;;;;;73.85;46.58;;;;;;;2.52;100.00;101253.78;1042691;28;20470;-80
2021/12/06 02:35:06;;;;;;;93.50;46.78;;;;;;;2.55;100.00;101247.38;1036346;28;20886;-80
2021/12/06 02:35:38;;;;;;;79.05;48.78;;;;;;;2.55;100.00;101256.09;1035567;28;20480;-81
2021/12/06 02:36:10;;;;;;;78.45;47.78;;;;;;;2.55;100.00;101258.72;1036111;28;20441;-80
2021/12/06 02:36:42;;;;;;;83.70;49.50;;;;;;;2.58;100.00;101257.59;1032045;28;20477;-80
2021/12/06 02:37:16;;;;;;;78.03;47.10;;;;;;;2.58;100.00;101255.78;1037448;28;20459;-80
2021/12/06 02:37:49;;;;;;;77.40;47.50;;;;;;;2.60;100.00;101255.63;1035364;28;20464;-75
2021/12/06 02:38:21;;;;;;;75.05;47.83;;;;;;;2.59;100.00;101257.44;1034985;28;20480;-74
2021/12/06 02:38:53;;;;;;;82.50;50.45;;;;;;;2.56;100.00;101257.75;1032444;28;20472;-74
2021/12/06 02:39:29;;;;;;;77.47;52.25;;;;;;;2.56;100.00;101247.22;1038074;28;20475;-74
2021/12/06 02:40:06;;;;;;;80.78;50.85;;;;;;;2.55;100.00;101261.34;1039601;28;20455;-74
2021/12/06 02:40:39;;;;;;;80.72;53.90;;;;;;;2.54;100.00;101257.06;1036533;28;20510;-74
2021/12/06 02:41:12;;;;;;;90.07;58.05;;;;;;;2.51;100.00;101262.63;1034882;28;20453;-75
2021/12/06 02:41:43;;;;;;;85.88;57.47;;;;;;;2.50;100.00;101257.53;1035339;28;20571;-75
2021/12/06 02:42:15;;;;;;;97.80;59.58;;;;;;;2.49;100.00;101259.34;1032930;28;20453;-75
2021/12/06 02:42:47;;;;;;;87.82;60.22;;;;;;;2.47;100.00;101261.28;1035395;28;20829;-75
2021/12/06 02:43:19;;;;;;;93.97;61.60;;;;;;;2.45;100.00;101265.84;1038851;28;20809;-75
2021/12/06 02:43:52;;;;;;;88.55;60.33;;;;;;;2.44;100.00;101266.84;1038821;28;20871;-75
2021/12/06 02:44:24;;;;;;;86.20;60.13;;;;;;;2.42;100.00;101263.53;1039429;28;20467;-75